Marion, VA (24354)

02:40 PM EST die 01o February, anno 2015 (GMT -0500)
Smyth Weather | Change Station
CLOSE
Current Station
Personal Weather Stations
Location: Marion, VA
Elevation: 2157 ft
Nearby Weather Stations

Elev 2157 ft 36.81 °N, 81.59 °W | Updated 8 seconds ago

Aequaliter Nubila
Aequaliter Nubila
49.3 °F
Feels Like 49 °F
N
0.0
Ventus Variabilis Ventus from Magis Zephyrus quam Auster
Gusts 0.0 mph

Hodie
High -- | Low -- °F
--% Chance of Precip.
Yesterday
High -- | Low -- °F
Precip. -- in
7:28 AM 5:51 PM
Waxing Gibbous, 96% visible
Pressio 30.00 in
Visibilitas 10.0 milia passuum
Clouds Aequaliter Nubila 11000 ft
Frigus Venti 49 °F
Frigus in quo Ros apparet 25 °F
Umor 38%
Rainfall 0.00 in
Snow Depth Not available.
UV 1 out of 12
Pollen .40 out of 12
Air Quality Not available.
Flu Activity Not available.
METAR KMKJ 011915Z AUTO 00000KT 10SM OVC110 10/M12 A3000 RMK AO2 T00981122

More Conditions Fewer Conditions

Pressio 30.00 in
Visibilitas 10.0 milia passuum
Clouds Aequaliter Nubila 11000 ft
Frigus Venti 49 °F
Frigus in quo Ros apparet 25 °F
Umor 38%
Rainfall 0.00 in
Snow Depth Not available.
UV 1 out of 12
Pollen .40 out of 12
Air Quality Not available.
Flu Activity Not available.
METAR KMKJ 011915Z AUTO 00000KT 10SM OVC110 10/M12 A3000 RMK AO2 T00981122

More Conditions Fewer Conditions

10-Day Weather Forecast

Almanac

Astronomy

Feb. 01, 2015 Rise Set
Actual Time
Civil Twilight
Nautical Twilight
Astronomical Twilight
Moon
Length Of Visible Light
Length of Day
Tomorrow will be .
, % of the Moon is Illuminated

Today's Extremes

State Highs State Lows

Community

WunderPhotos

Upload Photos

1,792,471 photos uploaded!

WunderBlogs® & News

Nearby

Air Quality

  Air Quality AQ Index Pollutant
Not available.

Snow Depth

Station Depth Elevation

Earthquake Activity

City Distance Mag. Time & Date
Minimum magnitude displayed is 2.5.

Coastal Water Temperatures

Locus Calor

Nearby Weather Stations